Time;durP1;ratioP1;P1;durP2;ratioP2;P2;SDS_P1;SDS_P2;PMS_P1;PMS_P2;Temp;Humidity;BMP_temperature;BMP_pressure;BME280_temperature;BME280_humidity;BME280_pressure;Samples;Min_cycle;Max_cycle;Signal;HPM_P1;HPM_P2
2022/04/07 00:00:50;;;;;;;3.03;2.80;;;;;;;;;;5013441;28;20187;-64
2022/04/07 00:03:16;;;;;;;4.73;3.40;;;;;;;;;;5013301;28;20659;-64
2022/04/07 00:05:42;;;;;;;2.90;2.60;;;;;;;;;;5013225;28;20203;-65
2022/04/07 00:08:08;;;;;;;2.53;2.30;;;;;;;;;;5013572;28;20183;-65
2022/04/07 00:10:34;;;;;;;4.13;2.87;;;;;;;;;;5013385;28;20211;-64
2022/04/07 00:13:00;;;;;;;4.40;2.70;;;;;;;;;;5013238;28;20179;-65
2022/04/07 00:15:27;;;;;;;2.37;2.17;;;;;;;;;;5013086;28;20275;-65
2022/04/07 00:17:53;;;;;;;2.50;2.17;;;;;;;;;;5013127;28;20187;-66
2022/04/07 00:20:20;;;;;;;4.70;2.30;;;;;;;;;;5013139;28;20253;-64
2022/04/07 00:22:47;;;;;;;3.10;2.17;;;;;;;;;;5013466;28;20171;-64
2022/04/07 00:25:13;;;;;;;2.57;2.10;;;;;;;;;;5013688;28;20196;-64
2022/04/07 00:27:39;;;;;;;2.07;1.97;;;;;;;;;;5013267;28;20184;-64
2022/04/07 00:30:06;;;;;;;2.23;1.80;;;;;;;;;;5012957;28;20203;-64
2022/04/07 00:32:32;;;;;;;3.10;2.00;;;;;;;;;;5013044;28;20234;-64
2022/04/07 00:34:58;;;;;;;1.93;1.73;;;;;;;;;;4995298;28;20676;-64
2022/04/07 00:37:24;;;;;;;4.10;2.17;;;;;;;;;;4995529;28;20180;-65
2022/04/07 00:39:50;;;;;;;2.77;2.00;;;;;;;;;;5013250;28;20644;-64
2022/04/07 00:42:17;;;;;;;2.07;1.87;;;;;;;;;;5013423;28;20222;-64
2022/04/07 00:44:46;;;;;;;2.27;1.90;;;;;;;;;;5013240;28;20199;-64
2022/04/07 00:47:12;;;;;;;2.03;1.70;;;;;;;;;;4995547;28;20191;-64
2022/04/07 00:49:38;;;;;;;4.13;1.80;;;;;;;;;;5012790;28;20571;-65
2022/04/07 00:52:04;;;;;;;2.40;2.10;;;;;;;;;;5015701;28;20176;-64
2022/04/07 00:54:30;;;;;;;3.97;2.10;;;;;;;;;;4998566;28;20215;-64
2022/04/07 00:56:58;;;;;;;3.40;1.90;;;;;;;;;;5016978;28;20577;-61
2022/04/07 00:59:24;;;;;;;3.20;2.00;;;;;;;;;;5016234;28;20697;-64
2022/04/07 01:01:51;;;;;;;4.43;2.30;;;;;;;;;;4998766;28;20274;-64
2022/04/07 01:04:17;;;;;;;3.10;2.23;;;;;;;;;;5016513;28;20238;-65
2022/04/07 01:06:44;;;;;;;2.80;1.93;;;;;;;;;;4999552;28;20184;-64
2022/04/07 01:09:10;;;;;;;2.37;2.00;;;;;;;;;;5017048;28;20660;-63
2022/04/07 01:11:37;;;;;;;3.00;2.00;;;;;;;;;;5016955;28;20234;-65
2022/04/07 01:14:04;;;;;;;6.67;1.97;;;;;;;;;;4998540;28;20228;-62
2022/04/07 01:16:30;;;;;;;2.63;2.23;;;;;;;;;;5016030;28;20643;-64
2022/04/07 01:18:59;;;;;;;2.90;2.17;;;;;;;;;;4998354;28;20230;-65
2022/04/07 01:21:26;;;;;;;3.33;1.70;;;;;;;;;;5015998;28;20180;-64
2022/04/07 01:24:05;;;;;;;6.03;2.40;;;;;;;;;;4998219;28;20233;-63
2022/04/07 01:26:38;;;;;;;2.43;1.87;;;;;;;;;;5016263;28;20191;-65
2022/04/07 01:29:05;;;;;;;3.50;2.00;;;;;;;;;;5015945;28;20214;-64
2022/04/07 01:31:32;;;;;;;2.60;2.03;;;;;;;;;;5016297;28;20180;-64
2022/04/07 01:33:58;;;;;;;3.83;1.90;;;;;;;;;;5015566;28;20192;-65
2022/04/07 01:36:25;;;;;;;2.63;1.50;;;;;;;;;;4998348;28;20652;-64
2022/04/07 01:38:51;;;;;;;5.67;2.10;;;;;;;;;;5015571;28;20702;-64
2022/04/07 01:41:19;;;;;;;4.53;2.17;;;;;;;;;;5015512;28;20175;-64
2022/04/07 01:43:46;;;;;;;4.03;2.27;;;;;;;;;;5015579;28;20196;-64
2022/04/07 01:46:12;;;;;;;6.37;2.03;;;;;;;;;;4998013;28;20180;-64
2022/04/07 01:48:39;;;;;;;3.50;2.07;;;;;;;;;;5015257;28;20183;-64
2022/04/07 01:51:06;;;;;;;2.87;2.10;;;;;;;;;;5015255;28;20571;-64
2022/04/07 01:53:32;;;;;;;4.00;2.47;;;;;;;;;;5015208;28;20176;-64
2022/04/07 01:55:59;;;;;;;3.53;1.67;;;;;;;;;;5015456;28;20515;-64
2022/04/07 01:58:25;;;;;;;2.30;1.87;;;;;;;;;;5015144;28;20207;-64
2022/04/07 02:00:51;;;;;;;3.10;1.90;;;;;;;;;;5015369;28;20635;-64
2022/04/07 02:03:17;;;;;;;3.03;1.70;;;;;;;;;;4996566;28;20263;-64
2022/04/07 02:05:43;;;;;;;2.60;1.90;;;;;;;;;;4997436;28;20238;-64
2022/04/07 02:08:09;;;;;;;5.07;2.00;;;;;;;;;;5015385;28;20180;-64
2022/04/07 02:10:35;;;;;;;2.63;1.50;;;;;;;;;;4997325;28;20230;-64
2022/04/07 02:13:01;;;;;;;2.37;1.60;;;;;;;;;;5015246;28;20176;-62
2022/04/07 02:15:27;;;;;;;3.43;2.47;;;;;;;;;;5015368;28;20196;-64
2022/04/07 02:17:53;;;;;;;3.40;1.73;;;;;;;;;;5014870;28;20176;-65
2022/04/07 02:20:19;;;;;;;5.13;1.80;;;;;;;;;;4997199;28;20231;-64
2022/04/07 02:22:45;;;;;;;3.70;1.90;;;;;;;;;;5015093;28;20195;-64
2022/04/07 02:25:11;;;;;;;3.00;1.90;;;;;;;;;;4997180;28;20741;-64
2022/04/07 02:27:39;;;;;;;3.30;1.87;;;;;;;;;;4997146;28;20270;-64
2022/04/07 02:30:06;;;;;;;3.23;1.70;;;;;;;;;;5014548;28;20203;-63
2022/04/07 02:32:32;;;;;;;3.97;1.80;;;;;;;;;;5014558;28;20182;-64
2022/04/07 02:34:58;;;;;;;3.70;1.97;;;;;;;;;;5014873;28;20270;-64
2022/04/07 02:37:27;;;;;;;3.60;2.20;;;;;;;;;;5014828;28;20264;-64
2022/04/07 02:39:54;;;;;;;4.17;2.00;;;;;;;;;;4996857;28;20270;-64
2022/04/07 02:42:20;;;;;;;4.90;1.80;;;;;;;;;;5015020;28;20187;-64
2022/04/07 02:44:46;;;;;;;4.97;2.30;;;;;;;;;;5014560;28;20221;-65
2022/04/07 02:47:12;;;;;;;2.50;2.10;;;;;;;;;;5014735;28;20593;-64
2022/04/07 02:49:39;;;;;;;4.33;2.30;;;;;;;;;;5014463;28;20203;-64
2022/04/07 02:52:06;;;;;;;2.43;2.23;;;;;;;;;;5014512;28;20180;-62
2022/04/07 02:54:33;;;;;;;4.70;2.50;;;;;;;;;;5014092;28;20269;-62
2022/04/07 02:56:59;;;;;;;2.83;2.30;;;;;;;;;;5014883;28;20176;-63
2022/04/07 02:59:24;;;;;;;6.43;2.30;;;;;;;;;;5014453;28;20176;-63
2022/04/07 03:01:52;;;;;;;3.27;2.13;;;;;;;;;;5014596;28;20275;-64
2022/04/07 03:04:19;;;;;;;4.70;2.37;;;;;;;;;;5014260;28;20745;-64
2022/04/07 03:06:45;;;;;;;6.37;2.43;;;;;;;;;;4996586;28;20265;-64
2022/04/07 03:09:11;;;;;;;4.77;2.40;;;;;;;;;;5014104;28;20222;-63
2022/04/07 03:11:37;;;;;;;4.73;2.30;;;;;;;;;;4996384;28;20184;-64
2022/04/07 03:14:03;;;;;;;3.37;2.33;;;;;;;;;;5013835;28;20199;-63
2022/04/07 03:16:29;;;;;;;3.63;2.30;;;;;;;;;;4996530;28;20182;-62
2022/04/07 03:18:55;;;;;;;4.60;2.13;;;;;;;;;;5013917;28;20254;-64
2022/04/07 03:21:21;;;;;;;2.73;1.63;;;;;;;;;;5014035;28;20175;-63
2022/04/07 03:23:47;;;;;;;3.03;2.07;;;;;;;;;;4997027;28;20340;-64
2022/04/07 03:26:13;;;;;;;3.17;2.10;;;;;;;;;;4996170;28;20184;-65
2022/04/07 03:28:39;;;;;;;3.57;2.20;;;;;;;;;;4996110;28;20226;-62
2022/04/07 03:31:05;;;;;;;3.80;1.93;;;;;;;;;;5013855;28;20207;-64
2022/04/07 03:33:31;;;;;;;3.50;1.70;;;;;;;;;;5013654;28;20662;-65
2022/04/07 03:35:58;;;;;;;4.53;2.23;;;;;;;;;;4996048;28;20264;-65
2022/04/07 03:38:24;;;;;;;4.87;1.93;;;;;;;;;;4996011;28;20561;-63
2022/04/07 03:40:50;;;;;;;4.30;1.77;;;;;;;;;;5013874;28;20176;-63
2022/04/07 03:43:16;;;;;;;4.43;1.90;;;;;;;;;;5013676;28;20230;-64
2022/04/07 03:45:42;;;;;;;4.33;1.60;;;;;;;;;;4995994;28;20208;-63
2022/04/07 03:48:08;;;;;;;4.57;1.73;;;;;;;;;;5014445;28;20224;-63
2022/04/07 03:50:34;;;;;;;3.37;1.90;;;;;;;;;;5013737;28;20705;-64
2022/04/07 03:53:00;;;;;;;5.70;2.00;;;;;;;;;;4996186;28;20171;-65
2022/04/07 03:55:26;;;;;;;4.23;1.50;;;;;;;;;;5013479;28;20219;-63
2022/04/07 03:57:52;;;;;;;6.03;1.67;;;;;;;;;;5014008;28;20255;-63
2022/04/07 04:00:19;;;;;;;3.83;1.60;;;;;;;;;;5013566;28;20218;-65
2022/04/07 04:02:45;;;;;;;4.67;1.70;;;;;;;;;;4995784;28;20246;-65
2022/04/07 04:05:11;;;;;;;6.67;1.80;;;;;;;;;;5013562;28;20226;-63
2022/04/07 04:07:37;;;;;;;4.57;1.77;;;;;;;;;;4996051;28;20187;-65
2022/04/07 04:10:04;;;;;;;5.13;1.90;;;;;;;;;;5013514;28;20589;-64
2022/04/07 04:12:30;;;;;;;3.00;1.60;;;;;;;;;;4995829;28;20667;-65
2022/04/07 04:14:56;;;;;;;3.80;1.77;;;;;;;;;;5013315;28;20196;-64
2022/04/07 04:17:22;;;;;;;3.40;1.67;;;;;;;;;;5013355;28;20172;-64
2022/04/07 04:19:48;;;;;;;5.87;2.00;;;;;;;;;;4995707;28;20179;-64
2022/04/07 04:22:14;;;;;;;6.90;1.83;;;;;;;;;;5013304;28;20697;-64
2022/04/07 04:24:40;;;;;;;5.17;1.70;;;;;;;;;;4995543;28;20718;-64
2022/04/07 04:27:06;;;;;;;4.57;1.80;;;;;;;;;;4998771;28;20215;-64
2022/04/07 04:29:32;;;;;;;6.00;2.47;;;;;;;;;;5016764;28;20180;-64
2022/04/07 04:31:58;;;;;;;8.07;2.70;;;;;;;;;;5032480;22;20231;-65
2022/04/07 04:34:24;;;;;;;2.67;1.53;;;;;;;;;;5016827;28;20172;-65
2022/04/07 04:36:49;;;;;;;4.80;2.10;;;;;;;;;;5017181;28;20263;-65
2022/04/07 04:39:15;;;;;;;6.13;1.80;;;;;;;;;;5017180;28;20187;-65
2022/04/07 04:41:41;;;;;;;6.00;1.87;;;;;;;;;;4999272;28;20230;-66
2022/04/07 04:44:07;;;;;;;4.83;1.80;;;;;;;;;;5016763;28;20203;-65
2022/04/07 04:46:33;;;;;;;5.50;1.83;;;;;;;;;;4999191;28;20187;-65
2022/04/07 04:48:59;;;;;;;2.03;1.50;;;;;;;;;;5016659;28;20179;-65
2022/04/07 04:51:25;;;;;;;4.00;1.87;;;;;;;;;;4998897;28;20196;-65
2022/04/07 04:53:51;;;;;;;3.43;1.80;;;;;;;;;;5017258;28;20544;-65
2022/04/07 04:56:17;;;;;;;5.87;2.40;;;;;;;;;;5016626;28;20182;-65
2022/04/07 04:58:43;;;;;;;4.53;2.27;;;;;;;;;;5016966;28;20184;-65
2022/04/07 05:01:09;;;;;;;4.30;2.30;;;;;;;;;;4998919;28;20180;-65
2022/04/07 05:03:35;;;;;;;5.17;2.97;;;;;;;;;;4999050;28;20235;-65
2022/04/07 05:06:01;;;;;;;4.20;2.10;;;;;;;;;;5016748;28;20523;-66
2022/04/07 05:08:27;;;;;;;3.80;2.30;;;;;;;;;;5016314;28;20639;-65
2022/04/07 05:10:53;;;;;;;7.53;3.17;;;;;;;;;;5016200;28;20710;-65
2022/04/07 05:13:21;;;;;;;4.60;2.33;;;;;;;;;;5016357;28;20200;-65
2022/04/07 05:15:47;;;;;;;4.00;2.87;;;;;;;;;;5016206;28;20652;-65
2022/04/07 05:18:13;;;;;;;5.20;3.23;;;;;;;;;;4998464;28;20226;-65
2022/04/07 05:20:39;;;;;;;5.97;2.63;;;;;;;;;;4998653;28;20191;-65
2022/04/07 05:23:05;;;;;;;4.47;2.73;;;;;;;;;;5016591;28;20557;-65
2022/04/07 05:25:31;;;;;;;2.30;2.10;;;;;;;;;;4998496;28;20180;-65
2022/04/07 05:27:57;;;;;;;3.77;2.60;;;;;;;;;;4998629;28;20175;-65
2022/04/07 05:30:23;;;;;;;4.33;3.10;;;;;;;;;;5015896;28;20203;-65
2022/04/07 05:32:49;;;;;;;7.13;3.00;;;;;;;;;;5015746;28;20211;-69
2022/04/07 05:35:18;;;;;;;5.00;3.17;;;;;;;;;;5016056;28;20675;-65
2022/04/07 05:37:44;;;;;;;4.43;2.70;;;;;;;;;;5015818;28;20715;-65
2022/04/07 05:40:11;;;;;;;3.53;2.50;;;;;;;;;;5016806;28;20215;-65
2022/04/07 05:42:37;;;;;;;5.07;2.43;;;;;;;;;;5016901;28;20664;-65
2022/04/07 05:45:03;;;;;;;3.13;2.17;;;;;;;;;;4999186;28;20183;-65
2022/04/07 05:47:29;;;;;;;3.10;2.60;;;;;;;;;;5016811;28;20570;-65
2022/04/07 05:49:56;;;;;;;2.27;2.00;;;;;;;;;;4998330;28;20206;-65
2022/04/07 05:52:22;;;;;;;3.40;2.07;;;;;;;;;;4998302;28;20204;-66
2022/04/07 05:54:48;;;;;;;4.87;2.20;;;;;;;;;;4998115;28;20563;-66
2022/04/07 05:57:14;;;;;;;3.73;2.20;;;;;;;;;;4998868;28;20180;-66
2022/04/07 05:59:40;;;;;;;2.40;2.20;;;;;;;;;;5016056;28;20179;-66
2022/04/07 06:02:06;;;;;;;3.73;2.60;;;;;;;;;;5015734;28;20234;-66
2022/04/07 06:04:32;;;;;;;3.43;2.13;;;;;;;;;;4997803;28;20202;-66
2022/04/07 06:06:57;;;;;;;3.27;2.20;;;;;;;;;;4998869;28;20187;-66
2022/04/07 06:09:23;;;;;;;2.13;1.80;;;;;;;;;;5015326;28;20267;-67
2022/04/07 06:11:49;;;;;;;3.73;2.30;;;;;;;;;;4997783;28;20610;-66
2022/04/07 06:14:15;;;;;;;4.57;2.63;;;;;;;;;;5015547;28;20571;-66
2022/04/07 06:16:41;;;;;;;2.10;1.60;;;;;;;;;;5015813;28;20706;-66
2022/04/07 06:19:07;;;;;;;5.00;2.10;;;;;;;;;;4997800;28;20585;-65
2022/04/07 06:21:33;;;;;;;2.33;1.70;;;;;;;;;;4997487;28;20203;-66
2022/04/07 06:23:59;;;;;;;2.83;1.50;;;;;;;;;;5015392;28;20258;-66
2022/04/07 06:26:25;;;;;;;2.20;1.70;;;;;;;;;;4997904;28;20195;-65
2022/04/07 06:28:52;;;;;;;1.80;1.67;;;;;;;;;;5016312;28;20186;-66
2022/04/07 06:31:17;;;;;;;4.50;2.93;;;;;;;;;;5014977;28;20191;-66
2022/04/07 06:33:44;;;;;;;3.07;1.70;;;;;;;;;;5014601;28;20258;-66
2022/04/07 06:36:10;;;;;;;3.03;1.63;;;;;;;;;;5014915;28;20250;-66
2022/04/07 06:38:36;;;;;;;2.57;1.50;;;;;;;;;;4997349;28;20639;-66
2022/04/07 06:41:02;;;;;;;2.57;1.63;;;;;;;;;;4997218;28;20262;-66
2022/04/07 06:43:28;;;;;;;4.73;2.00;;;;;;;;;;4997056;28;20303;-66
2022/04/07 06:45:54;;;;;;;1.80;1.57;;;;;;;;;;4996775;28;20222;-65
2022/04/07 06:48:20;;;;;;;3.63;1.47;;;;;;;;;;5014255;28;20686;-66
2022/04/07 06:50:46;;;;;;;2.93;1.20;;;;;;;;;;5014337;28;20207;-66
2022/04/07 06:53:13;;;;;;;2.10;1.57;;;;;;;;;;5014319;28;20222;-66
2022/04/07 06:55:39;;;;;;;3.97;1.57;;;;;;;;;;4996734;28;20176;-65
2022/04/07 06:58:06;;;;;;;2.77;1.30;;;;;;;;;;5014261;28;20176;-66
2022/04/07 07:00:33;;;;;;;3.00;1.60;;;;;;;;;;5015044;28;20191;-65
2022/04/07 07:03:00;;;;;;;2.47;1.50;;;;;;;;;;5014047;28;20737;-65
2022/04/07 07:05:27;;;;;;;3.73;1.53;;;;;;;;;;4996369;28;20229;-66
2022/04/07 07:07:53;;;;;;;3.03;1.50;;;;;;;;;;4996340;28;20194;-66
2022/04/07 07:10:20;;;;;;;2.03;1.40;;;;;;;;;;4996318;28;20299;-66
2022/04/07 07:12:46;;;;;;;1.60;1.50;;;;;;;;;;5014123;28;20200;-66
2022/04/07 07:15:12;;;;;;;2.93;1.57;;;;;;;;;;4996382;28;20183;-66
2022/04/07 07:17:39;;;;;;;1.33;1.13;;;;;;;;;;5014081;28;20171;-66
2022/04/07 07:20:05;;;;;;;2.70;1.60;;;;;;;;;;5013888;28;20547;-67
2022/04/07 07:22:31;;;;;;;2.60;1.60;;;;;;;;;;5013783;28;20231;-65
2022/04/07 07:24:57;;;;;;;3.03;1.53;;;;;;;;;;5014373;28;20204;-66
2022/04/07 07:27:24;;;;;;;2.03;1.57;;;;;;;;;;5013795;28;20184;-66
2022/04/07 07:29:50;;;;;;;1.77;1.50;;;;;;;;;;4996122;28;20231;-65
2022/04/07 07:32:16;;;;;;;3.97;1.50;;;;;;;;;;4995995;28;20261;-66
2022/04/07 07:34:42;;;;;;;2.37;1.47;;;;;;;;;;5013706;28;20706;-66
2022/04/07 07:37:08;;;;;;;1.97;1.33;;;;;;;;;;5013929;28;20183;-66
2022/04/07 07:39:34;;;;;;;4.23;1.53;;;;;;;;;;5013776;28;20635;-67
2022/04/07 07:42:00;;;;;;;6.03;1.53;;;;;;;;;;5013776;28;20691;-66
2022/04/07 07:44:26;;;;;;;2.17;1.10;;;;;;;;;;5013684;28;20176;-66
2022/04/07 07:46:52;;;;;;;5.07;1.50;;;;;;;;;;5013927;28;20625;-66
2022/04/07 07:49:19;;;;;;;2.13;1.37;;;;;;;;;;5013757;28;20183;-66
2022/04/07 07:51:45;;;;;;;1.60;1.37;;;;;;;;;;5013719;28;20674;-66
2022/04/07 07:54:10;;;;;;;2.10;1.90;;;;;;;;;;5014131;28;20172;-66
2022/04/07 07:56:36;;;;;;;5.57;2.90;;;;;;;;;;4995986;28;20215;-66
2022/04/07 07:59:02;;;;;;;4.70;2.37;;;;;;;;;;5013795;28;20187;-66
2022/04/07 08:01:28;;;;;;;5.07;3.03;;;;;;;;;;5015510;28;20206;-66
2022/04/07 08:03:54;;;;;;;7.03;3.37;;;;;;;;;;4999733;28;20274;-66
2022/04/07 08:06:20;;;;;;;4.17;2.27;;;;;;;;;;5017284;28;20262;-66
2022/04/07 08:08:46;;;;;;;2.40;2.20;;;;;;;;;;5017622;28;20207;-66
2022/04/07 08:11:12;;;;;;;2.60;1.97;;;;;;;;;;4999666;28;20200;-65
2022/04/07 08:13:38;;;;;;;3.07;2.10;;;;;;;;;;4999585;28;20188;-66
2022/04/07 08:16:05;;;;;;;2.70;2.10;;;;;;;;;;5017273;28;20179;-65
2022/04/07 08:18:31;;;;;;;2.20;1.80;;;;;;;;;;5017338;28;20183;-66
2022/04/07 08:20:57;;;;;;;1.33;1.20;;;;;;;;;;4999560;28;20179;-66
2022/04/07 08:23:23;;;;;;;1.20;1.20;;;;;;;;;;5017162;28;20196;-65
2022/04/07 08:25:49;;;;;;;1.37;1.20;;;;;;;;;;4999700;28;20192;-66
2022/04/07 08:28:15;;;;;;;1.37;1.27;;;;;;;;;;4999609;28;20226;-66
2022/04/07 08:30:41;;;;;;;1.00;0.90;;;;;;;;;;4999262;28;20239;-66
2022/04/07 08:33:07;;;;;;;1.60;1.50;;;;;;;;;;4999031;28;20211;-66
2022/04/07 08:35:33;;;;;;;1.40;1.30;;;;;;;;;;5016877;28;20222;-67
2022/04/07 08:37:59;;;;;;;1.30;1.20;;;;;;;;;;5016814;28;20183;-66
2022/04/07 08:40:25;;;;;;;2.17;1.47;;;;;;;;;;4999840;28;20179;-66
2022/04/07 08:42:51;;;;;;;1.47;1.30;;;;;;;;;;5016731;28;20203;-66
2022/04/07 08:45:17;;;;;;;3.17;1.10;;;;;;;;;;5016676;28;20635;-66
2022/04/07 08:47:47;;;;;;;1.43;1.00;;;;;;;;;;5016622;28;20187;-66
2022/04/07 08:50:14;;;;;;;1.10;1.10;;;;;;;;;;5016528;28;20548;-66
2022/04/07 08:52:40;;;;;;;1.07;0.97;;;;;;;;;;5016423;28;20195;-66
2022/04/07 08:55:06;;;;;;;1.50;1.00;;;;;;;;;;5017011;28;20642;-66
2022/04/07 08:57:33;;;;;;;0.80;0.80;;;;;;;;;;5016389;28;20180;-66
2022/04/07 08:59:59;;;;;;;1.17;0.90;;;;;;;;;;4998807;28;20183;-66
2022/04/07 09:02:25;;;;;;;0.87;0.87;;;;;;;;;;5016206;28;20231;-66
2022/04/07 09:04:58;;;;;;;1.23;1.07;;;;;;;;;;5016402;28;20254;-67
2022/04/07 09:07:30;;;;;;;1.97;0.83;;;;;;;;;;5016933;28;20168;-67
2022/04/07 09:10:00;;;;;;;5.20;1.30;;;;;;;;;;5016345;28;20192;-67
2022/04/07 09:12:26;;;;;;;2.10;0.97;;;;;;;;;;4998170;28;20200;-66
2022/04/07 09:14:59;;;;;;;2.00;1.07;;;;;;;;;;5016475;28;20206;-66
2022/04/07 09:17:26;;;;;;;1.03;0.93;;;;;;;;;;5016087;28;20159;-66
2022/04/07 09:19:52;;;;;;;2.30;1.17;;;;;;;;;;4998422;28;20659;-68
2022/04/07 09:22:18;;;;;;;2.90;1.20;;;;;;;;;;5015925;28;20199;-67
2022/04/07 09:24:44;;;;;;;5.43;1.30;;;;;;;;;;5015825;28;20215;-66
2022/04/07 09:27:11;;;;;;;2.27;1.10;;;;;;;;;;5015959;28;20217;-66
2022/04/07 09:29:38;;;;;;;2.60;1.27;;;;;;;;;;5016157;28;20211;-66
2022/04/07 09:32:05;;;;;;;1.00;1.00;;;;;;;;;;5015789;28;20302;-66
2022/04/07 09:34:31;;;;;;;1.17;1.07;;;;;;;;;;5015685;28;20675;-66
2022/04/07 09:37:07;;;;;;;1.93;1.23;;;;;;;;;;4998336;28;20723;-66
2022/04/07 09:39:44;;;;;;;2.90;1.00;;;;;;;;;;5015830;28;20183;-66
2022/04/07 09:42:25;;;;;;;1.57;1.20;;;;;;;;;;4998073;28;20401;-66
2022/04/07 09:44:52;;;;;;;1.10;1.00;;;;;;;;;;4998296;28;20190;-66
2022/04/07 09:47:19;;;;;;;3.60;1.30;;;;;;;;;;4997835;28;20184;-66
2022/04/07 09:49:45;;;;;;;1.90;1.50;;;;;;;;;;5015842;28;20200;-65
2022/04/07 09:52:12;;;;;;;4.17;1.73;;;;;;;;;;5015600;28;20207;-65
2022/04/07 09:54:41;;;;;;;1.80;1.70;;;;;;;;;;5015595;28;20231;-66
2022/04/07 09:57:11;;;;;;;2.20;1.60;;;;;;;;;;5015344;28;20179;-65
2022/04/07 09:59:40;;;;;;;2.53;1.83;;;;;;;;;;5015836;28;20218;-66
2022/04/07 10:02:06;;;;;;;1.87;1.70;;;;;;;;;;5015275;28;20196;-66
2022/04/07 10:04:34;;;;;;;2.93;1.77;;;;;;;;;;4997779;28;20320;-65
2022/04/07 10:07:02;;;;;;;2.10;1.80;;;;;;;;;;4997693;28;20617;-66
2022/04/07 10:09:29;;;;;;;2.07;1.87;;;;;;;;;;5014975;28;20725;-66
2022/04/07 10:11:56;;;;;;;1.83;1.70;;;;;;;;;;5014891;28;20196;-66
2022/04/07 10:14:23;;;;;;;2.37;1.47;;;;;;;;;;4997237;28;20654;-66
2022/04/07 10:16:49;;;;;;;2.93;1.77;;;;;;;;;;5015145;28;20196;-66
2022/04/07 10:19:29;;;;;;;1.83;1.70;;;;;;;;;;5014889;28;20212;-66
2022/04/07 10:22:08;;;;;;;1.40;1.30;;;;;;;;;;5014943;28;20199;-66
2022/04/07 10:24:47;;;;;;;3.67;3.03;;;;;;;;;;4996696;28;20172;-66
2022/04/07 10:27:15;;;;;;;5.47;3.40;;;;;;;;;;5014927;28;20180;-66
2022/04/07 10:29:41;;;;;;;1.80;1.70;;;;;;;;;;4997149;28;20333;-66
2022/04/07 10:32:19;;;;;;;2.00;1.90;;;;;;;;;;5015060;28;20211;-65
2022/04/07 10:34:54;;;;;;;2.40;1.97;;;;;;;;;;5014966;28;20163;-65
2022/04/07 10:37:40;;;;;;;2.13;1.70;;;;;;;;;;4997379;28;20595;-65
2022/04/07 10:40:25;;;;;;;1.90;1.60;;;;;;;;;;5015133;28;20543;-64
2022/04/07 10:43:06;;;;;;;3.43;1.73;;;;;;;;;;5014637;28;20230;-65
2022/04/07 10:45:33;;;;;;;2.93;1.57;;;;;;;;;;5014667;28;20175;-65
2022/04/07 10:48:18;;;;;;;2.37;1.50;;;;;;;;;;4996718;28;20199;-65
2022/04/07 10:50:49;;;;;;;2.57;1.60;;;;;;;;;;5014233;28;20675;-65
2022/04/07 10:56:01;;;;;;;4.60;1.77;;;;;;;;;;5013296;28;20296;-64
2022/04/07 10:58:40;;;;;;;3.73;1.70;;;;;;;;;;5014313;28;20255;-64
2022/04/07 11:01:06;;;;;;;2.93;1.40;;;;;;;;;;5014483;28;20702;-63
2022/04/07 11:03:33;;;;;;;1.60;1.30;;;;;;;;;;5014286;28;20532;-64
2022/04/07 11:05:59;;;;;;;1.73;1.37;;;;;;;;;;5014163;28;20266;-65
2022/04/07 11:08:25;;;;;;;2.23;1.57;;;;;;;;;;5014399;28;20192;-65
2022/04/07 11:10:53;;;;;;;1.13;1.07;;;;;;;;;;5014481;28;20200;-65
2022/04/07 11:13:39;;;;;;;2.03;1.30;;;;;;;;;;5014145;28;20176;-65
2022/04/07 11:16:12;;;;;;;2.33;1.50;;;;;;;;;;5014055;28;20179;-65
2022/04/07 11:18:38;;;;;;;3.30;1.50;;;;;;;;;;4996707;28;20647;-64
2022/04/07 11:21:08;;;;;;;2.40;1.87;;;;;;;;;;5014284;28;20180;-65
2022/04/07 11:23:42;;;;;;;4.73;1.60;;;;;;;;;;5014042;28;20257;-65
2022/04/07 11:26:11;;;;;;;1.63;1.43;;;;;;;;;;5014062;28;20172;-65
2022/04/07 11:28:37;;;;;;;2.50;1.40;;;;;;;;;;5013759;28;20179;-63
2022/04/07 11:31:04;;;;;;;1.93;1.37;;;;;;;;;;4996215;28;20671;-65
2022/04/07 11:33:30;;;;;;;2.50;1.60;;;;;;;;;;5013752;28;20183;-65
2022/04/07 11:35:59;;;;;;;3.17;1.90;;;;;;;;;;5013695;28;20175;-65
2022/04/07 11:38:35;;;;;;;2.13;1.50;;;;;;;;;;5013730;28;20180;-65
2022/04/07 11:41:02;;;;;;;1.80;1.30;;;;;;;;;;5013747;28;20183;-65
2022/04/07 11:43:28;;;;;;;2.37;1.50;;;;;;;;;;4996051;28;20180;-65
2022/04/07 11:45:55;;;;;;;2.53;1.70;;;;;;;;;;5013714;28;20183;-64
2022/04/07 11:48:22;;;;;;;2.53;1.60;;;;;;;;;;5013811;28;20183;-65
2022/04/07 11:50:48;;;;;;;2.20;1.63;;;;;;;;;;5013467;28;20298;-65
2022/04/07 11:53:16;;;;;;;1.77;1.50;;;;;;;;;;5013597;28;20275;-65
2022/04/07 11:55:42;;;;;;;2.10;1.47;;;;;;;;;;4995884;28;20211;-65
2022/04/07 11:58:10;;;;;;;4.53;1.50;;;;;;;;;;5013669;28;20259;-62
2022/04/07 12:00:36;;;;;;;2.83;1.20;;;;;;;;;;5013322;28;20180;-65
2022/04/07 12:03:03;;;;;;;3.63;1.60;;;;;;;;;;5013769;28;20190;-62
2022/04/07 12:05:30;;;;;;;3.63;1.70;;;;;;;;;;5013491;28;20199;-62
2022/04/07 12:07:56;;;;;;;3.40;1.53;;;;;;;;;;5013519;28;20248;-65
2022/04/07 12:10:22;;;;;;;5.00;2.10;;;;;;;;;;5014043;28;20206;-65
2022/04/07 12:12:48;;;;;;;3.43;1.30;;;;;;;;;;5014317;28;20180;-65
2022/04/07 12:15:16;;;;;;;2.53;1.30;;;;;;;;;;5014489;28;20545;-65
2022/04/07 12:18:01;;;;;;;2.37;1.60;;;;;;;;;;4996427;28;20202;-65
2022/04/07 12:20:27;;;;;;;5.93;1.80;;;;;;;;;;5013421;28;20207;-65
2022/04/07 12:23:10;;;;;;;3.10;1.90;;;;;;;;;;4995656;28;20713;-67
2022/04/07 12:25:36;;;;;;;4.13;2.10;;;;;;;;;;4995349;28;20214;-67
2022/04/07 12:28:13;;;;;;;7.70;2.30;;;;;;;;;;4995549;28;20220;-66
2022/04/07 12:30:42;;;;;;;4.10;2.20;;;;;;;;;;5013396;28;20278;-67
2022/04/07 12:33:08;;;;;;;7.03;2.63;;;;;;;;;;5013588;28;20255;-66
2022/04/07 12:35:45;;;;;;;5.50;2.53;;;;;;;;;;4995935;28;20210;-66
2022/04/07 12:38:11;;;;;;;5.77;2.57;;;;;;;;;;5013607;28;20175;-65
2022/04/07 12:40:38;;;;;;;6.30;2.50;;;;;;;;;;5014010;28;20192;-67
2022/04/07 12:43:04;;;;;;;6.50;2.53;;;;;;;;;;4996153;28;20190;-66
2022/04/07 12:45:30;;;;;;;7.00;2.33;;;;;;;;;;4995594;28;20290;-66
2022/04/07 12:48:06;;;;;;;9.47;3.13;;;;;;;;;;5015660;28;20544;-66
2022/04/07 12:50:33;;;;;;;6.47;2.47;;;;;;;;;;5016505;28;20238;-65
2022/04/07 12:53:00;;;;;;;4.07;2.07;;;;;;;;;;5016549;28;20202;-65
2022/04/07 12:55:35;;;;;;;6.67;2.23;;;;;;;;;;5016450;28;20207;-65
2022/04/07 12:58:01;;;;;;;6.37;2.07;;;;;;;;;;5017749;28;20182;-65
2022/04/07 13:00:27;;;;;;;7.50;2.33;;;;;;;;;;4999019;28;20546;-63
2022/04/07 13:02:54;;;;;;;10.50;2.97;;;;;;;;;;5017182;28;20218;-64
2022/04/07 13:05:21;;;;;;;8.57;2.50;;;;;;;;;;5016791;28;20219;-65
2022/04/07 13:07:47;;;;;;;4.13;1.93;;;;;;;;;;4998770;28;20655;-65
2022/04/07 13:10:14;;;;;;;4.20;2.03;;;;;;;;;;5016065;28;20206;-65
2022/04/07 13:12:40;;;;;;;6.40;1.73;;;;;;;;;;5016440;28;20176;-66
2022/04/07 13:15:06;;;;;;;4.20;1.53;;;;;;;;;;5016317;28;20740;-67
2022/04/07 13:17:32;;;;;;;7.37;2.47;;;;;;;;;;5016224;28;20183;-64
2022/04/07 13:19:59;;;;;;;6.23;2.20;;;;;;;;;;5016023;28;20233;-66
2022/04/07 13:22:26;;;;;;;8.47;2.80;;;;;;;;;;5016580;28;20183;-64
2022/04/07 13:24:52;;;;;;;6.30;2.30;;;;;;;;;;4998615;28;20576;-66
2022/04/07 13:27:18;;;;;;;3.07;2.13;;;;;;;;;;4998330;28;20739;-66
2022/04/07 13:29:45;;;;;;;4.30;2.03;;;;;;;;;;5016436;28;20263;-65
2022/04/07 13:32:11;;;;;;;7.47;2.33;;;;;;;;;;4998221;28;20267;-66
2022/04/07 13:34:37;;;;;;;10.10;2.40;;;;;;;;;;5015714;28;20223;-66
2022/04/07 13:37:04;;;;;;;7.87;2.77;;;;;;;;;;5016420;28;20176;-66
2022/04/07 13:39:30;;;;;;;10.30;2.57;;;;;;;;;;5015948;28;20190;-66
2022/04/07 13:41:56;;;;;;;7.17;2.67;;;;;;;;;;5016178;28;20628;-64
2022/04/07 13:44:22;;;;;;;13.50;3.50;;;;;;;;;;4997962;28;20675;-65
2022/04/07 13:46:48;;;;;;;8.10;2.73;;;;;;;;;;4998061;28;20184;-65
2022/04/07 13:49:16;;;;;;;4.73;1.87;;;;;;;;;;5015489;28;20207;-64
2022/04/07 13:51:42;;;;;;;8.30;2.60;;;;;;;;;;5015321;28;20282;-65
2022/04/07 13:54:08;;;;;;;7.07;2.53;;;;;;;;;;4997532;28;20579;-64
2022/04/07 13:56:34;;;;;;;7.53;2.77;;;;;;;;;;5015288;28;20263;-65
2022/04/07 13:59:00;;;;;;;10.47;2.93;;;;;;;;;;4996494;28;20566;-64
2022/04/07 14:01:26;;;;;;;9.43;2.63;;;;;;;;;;5015417;28;20176;-67
2022/04/07 14:03:53;;;;;;;5.90;2.43;;;;;;;;;;4997504;28;20231;-65
2022/04/07 14:06:21;;;;;;;6.13;2.27;;;;;;;;;;5014986;28;20623;-64
2022/04/07 14:08:48;;;;;;;7.90;2.20;;;;;;;;;;5015252;28;20328;-64
2022/04/07 14:11:14;;;;;;;6.37;2.60;;;;;;;;;;5015065;28;20196;-64
2022/04/07 14:13:40;;;;;;;7.93;1.87;;;;;;;;;;5014946;28;20175;-64
2022/04/07 14:16:08;;;;;;;4.37;2.23;;;;;;;;;;4997460;28;20600;-66
2022/04/07 14:18:34;;;;;;;6.07;2.03;;;;;;;;;;5015229;28;20222;-63
2022/04/07 14:21:00;;;;;;;6.33;2.07;;;;;;;;;;5015199;28;20180;-65
2022/04/07 14:23:26;;;;;;;6.30;2.70;;;;;;;;;;5015173;28;20187;-64
2022/04/07 14:25:52;;;;;;;6.83;2.27;;;;;;;;;;5015001;28;20183;-64
2022/04/07 14:28:18;;;;;;;3.57;2.33;;;;;;;;;;5015032;28;20214;-64
2022/04/07 14:30:49;;;;;;;7.83;2.33;;;;;;;;;;5015124;28;20567;-63
2022/04/07 14:33:15;;;;;;;5.63;2.03;;;;;;;;;;4997463;28;20239;-67
2022/04/07 14:35:42;;;;;;;6.93;2.53;;;;;;;;;;4997248;28;20230;-67
2022/04/07 14:38:09;;;;;;;8.37;3.17;;;;;;;;;;5014718;28;20183;-66
2022/04/07 14:40:37;;;;;;;10.37;2.93;;;;;;;;;;5014528;28;20186;-65
2022/04/07 14:43:03;;;;;;;6.27;2.73;;;;;;;;;;5014645;28;20172;-65
2022/04/07 14:45:29;;;;;;;7.93;2.63;;;;;;;;;;5014869;28;20267;-65